createdAt,value
2018-06-04T00:01:08.803Z,41.67
2018-06-04T00:03:37.095Z,40.63
2018-06-04T00:06:05.437Z,40.77
2018-06-04T00:08:33.748Z,42.90
2018-06-04T00:11:02.123Z,39.93
2018-06-04T00:13:31.117Z,40.10
2018-06-04T00:15:59.479Z,43.93
2018-06-04T00:18:27.778Z,44.57
2018-06-04T00:20:56.174Z,43.20
2018-06-04T00:23:24.531Z,43.33
2018-06-04T00:25:53.095Z,41.77
2018-06-04T00:28:21.424Z,44.30
2018-06-04T00:30:49.896Z,45.27
2018-06-04T00:33:18.231Z,44.83
2018-06-04T00:35:46.526Z,43.97
2018-06-04T00:38:14.924Z,47.23
2018-06-04T00:40:43.240Z,43.97
2018-06-04T00:43:11.588Z,45.67
2018-06-04T00:45:39.910Z,47.53
2018-06-04T00:48:08.270Z,48.27
2018-06-04T00:50:36.583Z,49.07
2018-06-04T00:53:04.887Z,51.70
2018-06-04T00:55:43.237Z,63.03
2018-06-04T00:58:11.536Z,61.30
2018-06-04T01:00:39.864Z,61.97
2018-06-04T01:03:08.219Z,60.30
2018-06-04T01:05:36.514Z,57.47
2018-06-04T01:08:04.867Z,53.50
2018-06-04T01:10:33.172Z,49.77
2018-06-04T01:13:01.534Z,49.53
2018-06-04T01:15:29.876Z,46.20
2018-06-04T01:17:58.198Z,47.50
2018-06-04T01:20:26.566Z,43.90
2018-06-04T01:22:54.964Z,44.00
2018-06-04T01:25:23.357Z,43.30
2018-06-04T01:27:51.712Z,38.73
2018-06-04T01:30:20.087Z,40.00
2018-06-04T01:32:48.458Z,41.67
2018-06-04T01:35:16.785Z,43.10
2018-06-04T01:37:45.115Z,48.47
2018-06-04T01:40:13.420Z,61.10
2018-06-04T01:42:41.812Z,58.47
2018-06-04T01:45:10.125Z,59.70
2018-06-04T01:47:38.432Z,61.23
2018-06-04T01:50:06.780Z,64.60
2018-06-04T01:52:35.104Z,67.03
2018-06-04T01:55:03.433Z,74.13
2018-06-04T01:57:31.790Z,69.87
2018-06-04T02:00:00.139Z,72.53
2018-06-04T02:02:28.449Z,75.17
2018-06-04T02:04:56.767Z,67.83
2018-06-04T02:07:25.141Z,68.50
2018-06-04T02:09:53.466Z,65.60
2018-06-04T02:12:21.810Z,61.33
2018-06-04T02:14:50.138Z,54.17
2018-06-04T02:17:18.452Z,47.70
2018-06-04T02:19:46.801Z,47.97
2018-06-04T02:22:15.143Z,41.50
2018-06-04T02:24:43.475Z,42.17
2018-06-04T02:27:11.820Z,38.07
2018-06-04T02:29:40.157Z,42.73
2018-06-04T02:32:08.475Z,38.60
2018-06-04T02:34:36.799Z,39.37
2018-06-04T02:37:05.173Z,36.00
2018-06-04T02:39:33.524Z,35.07
2018-06-04T02:42:01.849Z,35.37
2018-06-04T02:44:30.198Z,38.40
2018-06-04T02:46:58.555Z,37.77
2018-06-04T02:49:26.911Z,43.93
2018-06-04T02:51:55.236Z,43.67
2018-06-04T02:54:23.575Z,44.53
2018-06-04T02:56:51.865Z,48.37
2018-06-04T02:59:20.195Z,41.80
2018-06-04T03:01:48.509Z,45.57
2018-06-04T03:04:16.810Z,47.87
2018-06-04T03:06:45.110Z,48.83
2018-06-04T03:09:13.439Z,44.93
2018-06-04T03:11:41.781Z,49.57
2018-06-04T03:14:10.127Z,50.63
2018-06-04T03:16:38.463Z,50.53
2018-06-04T03:19:06.537Z,54.43
2018-06-04T03:21:34.853Z,51.73
2018-06-04T03:24:03.236Z,48.67
2018-06-04T03:26:31.594Z,50.83
2018-06-04T03:29:00.708Z,56.77
2018-06-04T03:31:29.085Z,55.87
2018-06-04T03:33:57.451Z,58.50
2018-06-04T03:36:25.813Z,57.53
2018-06-04T03:38:54.141Z,59.37
2018-06-04T03:41:22.455Z,57.40
2018-06-04T03:43:50.745Z,55.10
2018-06-04T03:46:19.058Z,62.67
2018-06-04T03:48:47.400Z,65.33
2018-06-04T03:51:15.715Z,59.30
2018-06-04T03:53:44.045Z,62.77
2018-06-04T03:56:12.380Z,61.93
2018-06-04T03:58:40.736Z,61.37
2018-06-04T04:01:09.356Z,66.27
2018-06-04T04:03:37.691Z,67.27
2018-06-04T04:06:06.012Z,62.03
2018-06-04T04:08:34.343Z,62.40
2018-06-04T04:11:02.730Z,65.80
2018-06-04T04:13:31.085Z,69.93
2018-06-04T04:15:59.477Z,74.70
2018-06-04T04:18:27.839Z,78.07
2018-06-04T04:20:56.192Z,77.53
2018-06-04T04:23:24.282Z,71.07
2018-06-04T04:25:52.640Z,78.33
2018-06-04T04:28:20.973Z,67.57
2018-06-04T04:30:49.319Z,74.00
2018-06-04T04:33:17.667Z,67.53
2018-06-04T04:35:45.986Z,70.90
2018-06-04T04:38:14.315Z,58.30
2018-06-04T04:40:42.385Z,52.73
2018-06-04T04:43:10.717Z,56.40
2018-06-04T04:45:39.216Z,50.17
2018-06-04T04:48:07.695Z,40.07
2018-06-04T04:50:36.020Z,42.47
2018-06-04T04:53:04.336Z,37.87
2018-06-04T04:55:32.642Z,34.80
2018-06-04T04:58:00.984Z,31.47
2018-06-04T05:00:29.333Z,29.87
2018-06-04T05:02:57.688Z,28.13
2018-06-04T05:05:26.067Z,26.27
2018-06-04T05:07:54.451Z,27.93
2018-06-04T05:10:22.515Z,29.73
2018-06-04T05:12:50.841Z,26.20
2018-06-04T05:15:19.148Z,26.87
2018-06-04T05:17:47.468Z,24.50
2018-06-04T05:20:15.800Z,25.53
2018-06-04T05:22:44.126Z,26.77
2018-06-04T05:25:12.476Z,25.37
2018-06-04T05:27:40.803Z,24.77
2018-06-04T05:30:09.124Z,26.70
2018-06-04T05:32:37.472Z,28.93
2018-06-04T05:35:05.909Z,24.10
2018-06-04T05:37:34.273Z,27.73
2018-06-04T05:40:02.587Z,25.10
2018-06-04T05:42:30.898Z,24.57
2018-06-04T05:44:59.234Z,29.40
2018-06-04T05:47:27.580Z,25.97
2018-06-04T05:49:55.963Z,30.70
2018-06-04T05:52:24.283Z,30.33
2018-06-04T05:54:52.633Z,27.77
2018-06-04T05:57:21.062Z,30.43
2018-06-04T05:59:49.888Z,26.93
2018-06-04T06:02:18.200Z,24.53
2018-06-04T06:04:46.534Z,24.40
2018-06-04T06:07:14.886Z,26.13
2018-06-04T06:09:43.254Z,24.37
2018-06-04T06:12:11.610Z,26.93
2018-06-04T06:14:39.955Z,26.93
2018-06-04T06:17:08.284Z,27.37
2018-06-04T06:19:36.634Z,28.53
2018-06-04T06:22:05.018Z,29.10
2018-06-04T06:24:33.330Z,26.67
2018-06-04T06:27:01.644Z,27.07
2018-06-04T06:29:29.956Z,23.70
2018-06-04T06:31:58.265Z,23.83
2018-06-04T06:34:26.589Z,25.03
2018-06-04T06:36:54.952Z,25.27
2018-06-04T06:39:23.258Z,24.50
2018-06-04T06:41:51.603Z,25.03
2018-06-04T06:44:19.978Z,25.63
2018-06-04T06:46:48.364Z,26.73
2018-06-04T06:49:16.673Z,23.60
2018-06-04T06:51:45.021Z,28.47
2018-06-04T06:54:13.438Z,23.90
2018-06-04T06:56:41.821Z,23.83
2018-06-04T06:59:10.197Z,24.23
2018-06-04T07:01:38.538Z,26.03
2018-06-04T07:04:06.908Z,22.90
2018-06-04T07:06:35.268Z,22.07
2018-06-04T07:09:03.732Z,24.40
2018-06-04T07:11:32.126Z,21.63
2018-06-04T07:14:00.453Z,22.23
2018-06-04T07:16:28.800Z,21.30
2018-06-04T07:18:57.200Z,20.90
2018-06-04T07:21:25.578Z,20.07
2018-06-04T07:23:53.898Z,20.67
2018-06-04T07:26:22.297Z,26.80
2018-06-04T07:28:50.610Z,24.27
2018-06-04T07:31:18.910Z,29.10
2018-06-04T07:33:47.321Z,23.20
2018-06-04T07:36:15.652Z,22.60
2018-06-04T07:38:43.990Z,21.73
2018-06-04T07:41:12.310Z,20.03
2018-06-04T07:43:40.631Z,19.90
2018-06-04T07:46:08.945Z,23.63
2018-06-04T07:48:37.264Z,19.23
2018-06-04T07:51:05.634Z,19.40
2018-06-04T07:53:33.980Z,20.67
2018-06-04T07:56:02.323Z,20.13
2018-06-04T07:58:30.699Z,18.67
2018-06-04T08:00:59.035Z,25.97
2018-06-04T08:03:27.416Z,22.10
2018-06-04T08:05:55.741Z,21.70
2018-06-04T08:08:24.071Z,22.40
2018-06-04T08:10:52.729Z,20.73
2018-06-04T08:13:21.074Z,21.03
2018-06-04T08:15:49.437Z,19.70
2018-06-04T08:18:17.771Z,20.40
2018-06-04T08:20:46.117Z,20.60
2018-06-04T08:23:14.445Z,21.50
2018-06-04T08:25:42.812Z,21.53
2018-06-04T08:28:11.137Z,22.23
2018-06-04T08:30:39.537Z,22.07
2018-06-04T08:33:07.862Z,22.20
2018-06-04T08:35:36.214Z,18.80
2018-06-04T08:38:04.565Z,20.77
2018-06-04T08:40:32.921Z,22.70
2018-06-04T08:43:01.257Z,25.90
2018-06-04T08:45:29.578Z,24.37
2018-06-04T08:47:57.933Z,20.40
2018-06-04T08:50:26.252Z,25.53
2018-06-04T08:52:54.578Z,19.83
2018-06-04T08:55:22.908Z,21.70
2018-06-04T08:57:51.248Z,20.80
2018-06-04T09:00:19.596Z,21.57
2018-06-04T09:02:47.962Z,21.87
2018-06-04T09:05:16.340Z,22.60
2018-06-04T09:07:44.659Z,18.73
2018-06-04T09:10:12.999Z,20.40
2018-06-04T09:12:41.328Z,23.70
2018-06-04T09:15:09.660Z,18.80
2018-06-04T09:17:38.002Z,18.10
2018-06-04T09:20:06.368Z,23.27
2018-06-04T09:22:34.732Z,19.20
2018-06-04T09:25:03.074Z,21.90
2018-06-04T09:27:31.391Z,20.73
2018-06-04T09:29:59.760Z,20.50
2018-06-04T09:32:28.094Z,21.10
2018-06-04T09:34:56.419Z,21.13
2018-06-04T09:37:24.763Z,22.93
2018-06-04T09:39:53.123Z,25.30
2018-06-04T09:42:21.432Z,23.30
2018-06-04T09:44:49.760Z,25.87
2018-06-04T09:47:18.162Z,27.10
2018-06-04T09:49:46.517Z,22.57
2018-06-04T09:52:14.817Z,24.00
2018-06-04T09:54:43.138Z,25.23
2018-06-04T09:57:11.424Z,25.13
2018-06-04T09:59:39.766Z,23.70
2018-06-04T10:02:08.090Z,22.13
2018-06-04T10:04:36.404Z,22.97
2018-06-04T10:07:04.748Z,22.20
2018-06-04T10:09:33.110Z,22.53
2018-06-04T10:12:01.176Z,30.30
2018-06-04T10:14:29.512Z,25.37
2018-06-04T10:16:57.803Z,23.47
2018-06-04T10:19:26.125Z,24.47
2018-06-04T10:21:54.458Z,22.97
2018-06-04T10:24:22.772Z,24.83
2018-06-04T10:26:51.104Z,24.53
2018-06-04T10:29:19.410Z,22.47
2018-06-04T10:31:47.742Z,20.77
2018-06-04T10:34:16.084Z,23.17
2018-06-04T10:36:44.144Z,20.27
2018-06-04T10:39:12.475Z,20.83
2018-06-04T10:41:40.773Z,19.13
2018-06-04T10:44:09.111Z,21.37
2018-06-04T10:46:37.519Z,18.07
2018-06-04T10:49:05.868Z,20.63
2018-06-04T10:51:34.195Z,20.27
2018-06-04T10:54:02.508Z,20.30
2018-06-04T10:56:30.819Z,19.17
2018-06-04T10:58:59.161Z,20.83
2018-06-04T11:01:27.522Z,19.67
2018-06-04T11:03:55.883Z,20.20
2018-06-04T11:06:24.227Z,19.47
2018-06-04T11:08:52.557Z,19.03
2018-06-04T11:11:20.870Z,21.23
2018-06-04T11:13:49.187Z,17.17
2018-06-04T11:16:17.486Z,21.67
2018-06-04T11:18:45.855Z,17.63
2018-06-04T11:21:14.142Z,17.23
2018-06-04T11:23:48.825Z,20.27
2018-06-04T11:26:17.190Z,16.70
2018-06-04T11:28:45.534Z,17.53
2018-06-04T11:31:13.857Z,15.13
2018-06-04T11:33:42.183Z,15.60
2018-06-04T11:36:10.536Z,13.07
2018-06-04T11:38:38.847Z,13.83
2018-06-04T11:41:07.162Z,11.30
2018-06-04T11:43:35.499Z,10.17
2018-06-04T11:46:03.812Z,9.93
2018-06-04T11:48:32.171Z,9.00
2018-06-04T11:51:00.518Z,9.53
2018-06-04T11:53:28.851Z,10.33
2018-06-04T11:55:57.184Z,10.13
2018-06-04T11:58:25.511Z,10.83
2018-06-04T12:00:53.867Z,11.47
2018-06-04T12:03:22.151Z,10.67
2018-06-04T12:05:50.495Z,13.37
2018-06-04T12:08:18.795Z,11.50
2018-06-04T12:10:47.125Z,10.50
2018-06-04T12:13:15.471Z,11.33
2018-06-04T12:15:43.783Z,11.13
2018-06-04T12:18:12.137Z,10.53
2018-06-04T12:20:40.451Z,9.70
2018-06-04T12:23:08.793Z,10.07
2018-06-04T12:25:37.101Z,11.07
2018-06-04T12:28:05.191Z,10.03
2018-06-04T12:30:33.489Z,10.13
2018-06-04T12:33:01.800Z,10.30
2018-06-04T12:35:30.151Z,10.00
2018-06-04T12:37:58.507Z,20.60
2018-06-04T12:40:26.859Z,11.23
2018-06-04T12:42:55.213Z,12.37
2018-06-04T12:45:23.533Z,12.07
2018-06-04T12:47:51.857Z,11.87
2018-06-04T12:50:20.221Z,12.40
2018-06-04T12:52:48.573Z,12.87
2018-06-04T12:55:16.909Z,13.10
2018-06-04T12:57:45.231Z,12.87
2018-06-04T13:00:13.606Z,12.67
2018-06-04T13:02:41.971Z,12.47
2018-06-04T13:05:10.280Z,16.57
2018-06-04T13:07:38.623Z,12.30
2018-06-04T13:10:06.917Z,12.27
2018-06-04T13:12:35.231Z,11.43
2018-06-04T13:15:03.591Z,11.23
2018-06-04T13:17:31.949Z,11.10
2018-06-04T13:20:00.378Z,11.33
2018-06-04T13:22:28.717Z,12.57
2018-06-04T13:24:57.075Z,11.37
2018-06-04T13:27:25.441Z,10.43
2018-06-04T13:29:53.784Z,10.53
2018-06-04T13:32:22.170Z,11.07
2018-06-04T13:34:50.530Z,10.70
2018-06-04T13:37:18.881Z,10.47
2018-06-04T13:39:47.211Z,10.20
2018-06-04T13:42:15.569Z,10.10
2018-06-04T13:44:43.944Z,8.90
2018-06-04T13:47:12.287Z,9.13
2018-06-04T13:49:40.659Z,9.03
2018-06-04T13:52:09.051Z,8.63
2018-06-04T13:54:37.367Z,8.50
2018-06-04T13:57:05.778Z,9.00
2018-06-04T13:59:34.132Z,7.93
2018-06-04T14:02:02.439Z,8.63
2018-06-04T14:04:30.776Z,8.53
2018-06-04T14:06:59.119Z,8.30
2018-06-04T14:09:27.493Z,8.80
2018-06-04T14:11:55.827Z,8.27
2018-06-04T14:14:24.211Z,9.00
2018-06-04T14:16:52.515Z,8.50
2018-06-04T14:19:20.845Z,9.73
2018-06-04T14:21:49.167Z,13.40
2018-06-04T14:24:17.495Z,11.13
2018-06-04T14:26:45.823Z,9.87
2018-06-04T14:29:14.125Z,8.47
2018-06-04T14:31:42.515Z,8.03
2018-06-04T14:34:10.867Z,9.30
2018-06-04T14:36:39.161Z,8.67
2018-06-04T14:39:09.328Z,8.93
2018-06-04T14:41:37.869Z,9.17
2018-06-04T14:44:06.221Z,9.43
2018-06-04T14:46:34.537Z,9.57
2018-06-04T14:49:03.019Z,9.53
2018-06-04T14:51:31.459Z,10.30
2018-06-04T14:53:59.781Z,9.30
2018-06-04T14:56:28.119Z,10.27
2018-06-04T14:58:56.459Z,9.53
2018-06-04T15:01:24.766Z,10.07
2018-06-04T15:03:53.147Z,10.10
2018-06-04T15:06:21.458Z,10.50
2018-06-04T15:08:49.783Z,24.27
2018-06-04T15:11:18.138Z,21.10
2018-06-04T15:13:46.475Z,86.97
2018-06-04T15:16:14.818Z,22.03
2018-06-04T15:18:49.463Z,17.63
2018-06-04T15:21:17.809Z,14.50
2018-06-04T15:23:46.151Z,16.23
2018-06-04T15:26:14.481Z,15.37
2018-06-04T15:28:42.770Z,13.93
2018-06-04T15:31:11.103Z,13.90
2018-06-04T15:33:39.453Z,11.80
2018-06-04T15:36:07.803Z,11.00
2018-06-04T15:38:36.195Z,11.63
2018-06-04T15:41:04.541Z,11.80
2018-06-04T15:43:32.895Z,11.40
2018-06-04T15:46:01.087Z,12.10
2018-06-04T15:48:29.449Z,12.80
2018-06-04T15:50:57.816Z,13.00
2018-06-04T15:53:26.167Z,12.47
2018-06-04T15:55:54.473Z,12.87
2018-06-04T15:58:22.847Z,13.17
2018-06-04T16:00:51.177Z,13.40
2018-06-04T16:03:19.491Z,13.57
2018-06-04T16:05:47.862Z,13.03
2018-06-04T16:08:16.186Z,13.97
2018-06-04T16:10:44.501Z,16.03
2018-06-04T16:13:12.824Z,15.60
2018-06-04T16:15:41.184Z,15.07
2018-06-04T16:18:09.288Z,16.50
2018-06-04T16:20:37.651Z,17.80
2018-06-04T16:23:12.516Z,17.47
2018-06-04T16:25:40.869Z,17.40
2018-06-04T16:28:09.232Z,16.63
2018-06-04T16:30:37.569Z,15.87
2018-06-04T16:33:05.898Z,17.50
2018-06-04T16:35:34.245Z,15.83
2018-06-04T16:38:02.607Z,16.40
2018-06-04T16:40:30.933Z,16.23
2018-06-04T16:42:59.313Z,14.90
2018-06-04T16:45:27.693Z,15.27
2018-06-04T16:47:56.029Z,15.23
2018-06-04T16:50:24.407Z,15.13
2018-06-04T16:53:01.943Z,15.37
2018-06-04T16:55:30.272Z,16.90
2018-06-04T16:57:58.604Z,18.47
2018-06-04T17:00:26.930Z,18.77
2018-06-04T17:02:55.278Z,18.47
2018-06-04T17:05:23.622Z,19.03
2018-06-04T17:07:51.958Z,19.40
2018-06-04T17:10:20.262Z,19.20
2018-06-04T17:12:48.614Z,20.10
2018-06-04T17:15:16.943Z,20.23
2018-06-04T17:17:45.277Z,19.10
2018-06-04T17:20:13.678Z,21.87
2018-06-04T17:22:42.279Z,19.70
2018-06-04T17:25:10.615Z,19.50
2018-06-04T17:27:38.942Z,20.43
2018-06-04T17:30:07.259Z,19.23
2018-06-04T17:32:35.601Z,19.30
2018-06-04T17:35:03.981Z,18.20
2018-06-04T17:37:32.392Z,17.17
2018-06-04T17:40:00.732Z,18.37
2018-06-04T17:42:29.060Z,18.50
2018-06-04T17:44:57.419Z,18.63
2018-06-04T17:47:26.499Z,19.23
2018-06-04T17:49:54.883Z,18.13
2018-06-04T17:52:23.192Z,19.60
2018-06-04T17:54:51.230Z,19.03
2018-06-04T17:57:19.687Z,20.17
2018-06-04T17:59:48.023Z,19.30
2018-06-04T18:02:16.378Z,19.70
2018-06-04T18:04:44.746Z,19.07
2018-06-04T18:07:13.064Z,19.00
2018-06-04T18:09:41.416Z,18.63
2018-06-04T18:12:09.770Z,19.00
2018-06-04T18:14:38.149Z,19.00
2018-06-04T18:17:06.533Z,18.83
2018-06-04T18:19:34.877Z,17.53
2018-06-04T18:22:03.182Z,17.20
2018-06-04T18:24:31.533Z,15.97
2018-06-04T18:26:59.909Z,16.83
2018-06-04T18:29:28.261Z,17.10
2018-06-04T18:31:56.894Z,16.60
2018-06-04T18:34:25.287Z,16.73
2018-06-04T18:36:53.640Z,16.60
2018-06-04T18:39:22.013Z,17.37
2018-06-04T18:41:50.369Z,17.67
2018-06-04T18:44:18.768Z,17.23
2018-06-04T18:46:49.622Z,19.23
2018-06-04T18:49:18.062Z,19.20
2018-06-04T18:51:46.403Z,17.87
2018-06-04T18:54:14.817Z,20.03
2018-06-04T18:56:43.160Z,19.63
2018-06-04T18:59:11.505Z,19.33
2018-06-04T19:01:40.480Z,20.93
2018-06-04T19:04:08.889Z,19.63
2018-06-04T19:06:37.267Z,21.20
2018-06-04T19:09:08.794Z,20.97
2018-06-04T19:11:37.735Z,22.17
2018-06-04T19:14:06.164Z,21.33
2018-06-04T19:16:34.519Z,22.90
2018-06-04T19:19:02.951Z,20.60
2018-06-04T19:21:31.327Z,20.60
2018-06-04T19:23:59.722Z,21.47
2018-06-04T19:26:29.237Z,20.30
2018-06-04T19:28:57.600Z,20.83
2018-06-04T19:31:26.588Z,20.50
2018-06-04T19:33:55.047Z,17.77
2018-06-04T19:36:23.424Z,19.33
2018-06-04T19:38:51.864Z,20.20
2018-06-04T19:41:20.208Z,18.47
2018-06-04T19:43:48.626Z,17.77
2018-06-04T19:46:17.049Z,19.10
2018-06-04T19:48:45.408Z,18.97
2018-06-04T19:51:13.667Z,18.20
2018-06-04T19:53:42.094Z,15.47
2018-06-04T19:56:10.503Z,15.03
2018-06-04T19:58:38.823Z,15.27
2018-06-04T20:01:07.160Z,14.27
2018-06-04T20:03:35.641Z,14.07
2018-06-04T20:06:04.088Z,13.10
2018-06-04T20:08:32.461Z,13.17
2018-06-04T20:11:00.819Z,13.67
2018-06-04T20:13:29.133Z,13.13
2018-06-04T20:15:57.503Z,12.67
2018-06-04T20:18:25.970Z,13.03
2018-06-04T20:20:54.287Z,14.47
2018-06-04T20:23:22.405Z,13.50
2018-06-04T20:25:50.729Z,13.90
2018-06-04T20:28:19.102Z,13.50
2018-06-04T20:30:47.494Z,13.77
2018-06-04T20:33:15.865Z,13.90
2018-06-04T20:35:43.943Z,13.17
2018-06-04T20:38:12.274Z,13.87
2018-06-04T20:40:40.639Z,13.20
2018-06-04T20:43:08.941Z,12.47
2018-06-04T20:45:37.231Z,12.37
2018-06-04T20:48:05.856Z,12.83
2018-06-04T20:50:34.188Z,14.17
2018-06-04T20:53:02.490Z,13.47
2018-06-04T20:55:30.886Z,12.63
2018-06-04T20:57:59.232Z,12.23
2018-06-04T21:00:27.559Z,14.20
2018-06-04T21:02:55.899Z,15.97
2018-06-04T21:05:24.216Z,13.57
2018-06-04T21:07:52.556Z,13.97
2018-06-04T21:10:20.663Z,13.10
2018-06-04T21:12:49.015Z,12.77
2018-06-04T21:15:17.372Z,14.27
2018-06-04T21:17:45.731Z,18.93
2018-06-04T21:20:14.138Z,16.07
2018-06-04T21:22:42.560Z,15.17
2018-06-04T21:25:10.940Z,15.70
2018-06-04T21:27:39.314Z,17.00
2018-06-04T21:30:07.655Z,15.83
2018-06-04T21:32:35.738Z,15.27
2018-06-04T21:35:04.108Z,16.83
2018-06-04T21:37:32.427Z,17.03
2018-06-04T21:40:00.760Z,16.20
2018-06-04T21:42:29.128Z,16.53
2018-06-04T21:44:57.444Z,16.53
2018-06-04T21:47:25.724Z,16.77
2018-06-04T21:49:54.087Z,16.17
2018-06-04T21:52:22.422Z,19.27
2018-06-04T21:54:50.816Z,17.13
2018-06-04T21:57:19.128Z,17.13
2018-06-04T21:59:47.468Z,16.23
2018-06-04T22:02:15.850Z,15.90
2018-06-04T22:04:44.178Z,16.23
2018-06-04T22:07:12.500Z,16.50
2018-06-04T22:09:40.854Z,16.97
2018-06-04T22:12:09.174Z,19.50
2018-06-04T22:14:37.369Z,19.60
2018-06-04T22:17:05.832Z,20.50
2018-06-04T22:19:34.147Z,19.50
2018-06-04T22:22:02.481Z,20.83
2018-06-04T22:24:30.816Z,20.10
2018-06-04T22:26:59.116Z,21.40
2018-06-04T22:29:27.432Z,18.93
2018-06-04T22:31:55.761Z,21.40
2018-06-04T22:34:24.088Z,24.40
2018-06-04T22:36:52.424Z,25.33
2018-06-04T22:39:20.724Z,22.27
2018-06-04T22:41:49.044Z,22.00
2018-06-04T22:44:17.392Z,22.07
2018-06-04T22:46:45.741Z,21.47
2018-06-04T22:49:14.057Z,20.33
2018-06-04T22:51:42.450Z,18.53
2018-06-04T22:54:10.751Z,19.23
2018-06-04T22:56:39.065Z,18.77
2018-06-04T22:59:07.418Z,18.87
2018-06-04T23:01:35.498Z,22.03
2018-06-04T23:04:03.839Z,19.07
2018-06-04T23:06:32.163Z,18.17
2018-06-04T23:09:00.479Z,18.17
2018-06-04T23:11:28.816Z,20.10
2018-06-04T23:13:57.161Z,22.63
2018-06-04T23:16:25.558Z,18.80
2018-06-04T23:18:53.880Z,18.47
2018-06-04T23:21:22.192Z,19.07
2018-06-04T23:23:50.477Z,20.70
2018-06-04T23:26:18.771Z,18.97
2018-06-04T23:28:47.103Z,19.07
2018-06-04T23:31:15.379Z,20.07
2018-06-04T23:33:43.669Z,18.60
2018-06-04T23:36:11.987Z,19.60
2018-06-04T23:38:40.330Z,18.90
2018-06-04T23:41:08.714Z,18.37
2018-06-04T23:43:37.017Z,18.27
2018-06-04T23:46:05.382Z,16.60
2018-06-04T23:48:33.690Z,19.20
2018-06-04T23:51:01.980Z,18.07
2018-06-04T23:53:30.278Z,17.90
2018-06-04T23:55:58.622Z,16.70
2018-06-04T23:58:26.906Z,17.57
